sensor_id;sensor_type;location;lat;lon;timestamp;P1;durP1;ratioP1;P2;durP2;ratioP2
55641;SDS011;41509;53.108;6.100;2024-02-26T00:02:07;19.00;;;7.47;;
55641;SDS011;41509;53.108;6.100;2024-02-26T00:04:36;15.85;;;7.25;;
55641;SDS011;41509;53.108;6.100;2024-02-26T00:07:02;18.40;;;7.28;;
55641;SDS011;41509;53.108;6.100;2024-02-26T00:09:31;17.13;;;7.68;;
55641;SDS011;41509;53.108;6.100;2024-02-26T00:12:01;15.68;;;6.95;;
55641;SDS011;41509;53.108;6.100;2024-02-26T00:14:29;16.02;;;7.20;;
55641;SDS011;41509;53.108;6.100;2024-02-26T00:16:56;16.35;;;6.97;;
55641;SDS011;41509;53.108;6.100;2024-02-26T00:19:22;14.52;;;7.85;;
55641;SDS011;41509;53.108;6.100;2024-02-26T00:21:48;15.85;;;8.52;;
55641;SDS011;41509;53.108;6.100;2024-02-26T00:24:14;14.43;;;7.07;;
55641;SDS011;41509;53.108;6.100;2024-02-26T00:26:41;15.88;;;7.15;;
55641;SDS011;41509;53.108;6.100;2024-02-26T00:29:07;16.02;;;7.85;;
55641;SDS011;41509;53.108;6.100;2024-02-26T00:31:33;13.68;;;6.78;;
55641;SDS011;41509;53.108;6.100;2024-02-26T00:34:00;13.20;;;6.63;;
55641;SDS011;41509;53.108;6.100;2024-02-26T00:36:29;11.88;;;6.55;;
55641;SDS011;41509;53.108;6.100;2024-02-26T00:38:56;15.70;;;7.80;;
55641;SDS011;41509;53.108;6.100;2024-02-26T00:41:22;13.90;;;6.93;;
55641;SDS011;41509;53.108;6.100;2024-02-26T00:43:48;17.55;;;8.00;;
55641;SDS011;41509;53.108;6.100;2024-02-26T00:46:17;13.13;;;6.90;;
55641;SDS011;41509;53.108;6.100;2024-02-26T00:48:43;14.07;;;7.13;;
55641;SDS011;41509;53.108;6.100;2024-02-26T00:51:09;13.60;;;7.00;;
55641;SDS011;41509;53.108;6.100;2024-02-26T00:53:35;13.45;;;6.38;;
55641;SDS011;41509;53.108;6.100;2024-02-26T00:56:01;14.23;;;7.45;;
55641;SDS011;41509;53.108;6.100;2024-02-26T00:58:28;13.57;;;6.22;;
55641;SDS011;41509;53.108;6.100;2024-02-26T01:00:54;14.50;;;7.03;;
55641;SDS011;41509;53.108;6.100;2024-02-26T01:03:20;11.90;;;6.50;;
55641;SDS011;41509;53.108;6.100;2024-02-26T01:05:49;14.27;;;5.93;;
55641;SDS011;41509;53.108;6.100;2024-02-26T01:08:18;12.13;;;6.30;;
55641;SDS011;41509;53.108;6.100;2024-02-26T01:10:44;12.15;;;6.38;;
55641;SDS011;41509;53.108;6.100;2024-02-26T01:13:12;13.02;;;6.35;;
55641;SDS011;41509;53.108;6.100;2024-02-26T01:15:39;14.32;;;6.97;;
55641;SDS011;41509;53.108;6.100;2024-02-26T01:18:09;13.05;;;7.03;;
55641;SDS011;41509;53.108;6.100;2024-02-26T01:20:38;13.48;;;6.65;;
55641;SDS011;41509;53.108;6.100;2024-02-26T01:23:04;13.82;;;6.47;;
55641;SDS011;41509;53.108;6.100;2024-02-26T01:25:31;10.50;;;5.90;;
55641;SDS011;41509;53.108;6.100;2024-02-26T01:27:57;13.25;;;5.90;;
55641;SDS011;41509;53.108;6.100;2024-02-26T01:30:23;15.02;;;6.55;;
55641;SDS011;41509;53.108;6.100;2024-02-26T01:32:49;13.35;;;7.60;;
55641;SDS011;41509;53.108;6.100;2024-02-26T01:35:15;9.27;;;5.50;;
55641;SDS011;41509;53.108;6.100;2024-02-26T01:37:41;12.63;;;6.07;;
55641;SDS011;41509;53.108;6.100;2024-02-26T01:40:10;11.52;;;5.93;;
55641;SDS011;41509;53.108;6.100;2024-02-26T01:45:06;11.65;;;5.93;;
55641;SDS011;41509;53.108;6.100;2024-02-26T01:47:47;9.60;;;4.97;;
55641;SDS011;41509;53.108;6.100;2024-02-26T01:50:14;10.02;;;5.00;;
55641;SDS011;41509;53.108;6.100;2024-02-26T01:52:41;8.85;;;5.07;;
55641;SDS011;41509;53.108;6.100;2024-02-26T01:55:07;16.10;;;6.45;;
55641;SDS011;41509;53.108;6.100;2024-02-26T01:57:33;8.50;;;4.53;;
55641;SDS011;41509;53.108;6.100;2024-02-26T01:59:59;8.63;;;4.68;;
55641;SDS011;41509;53.108;6.100;2024-02-26T02:02:25;8.17;;;4.47;;
55641;SDS011;41509;53.108;6.100;2024-02-26T02:04:51;9.38;;;4.70;;
55641;SDS011;41509;53.108;6.100;2024-02-26T02:07:17;7.30;;;4.43;;
55641;SDS011;41509;53.108;6.100;2024-02-26T02:09:47;7.18;;;3.97;;
55641;SDS011;41509;53.108;6.100;2024-02-26T02:12:13;7.63;;;3.80;;
55641;SDS011;41509;53.108;6.100;2024-02-26T02:14:41;9.20;;;4.07;;
55641;SDS011;41509;53.108;6.100;2024-02-26T02:17:06;8.43;;;4.47;;
55641;SDS011;41509;53.108;6.100;2024-02-26T02:19:32;7.37;;;4.13;;
55641;SDS011;41509;53.108;6.100;2024-02-26T02:21:58;7.77;;;3.37;;
55641;SDS011;41509;53.108;6.100;2024-02-26T02:24:23;8.57;;;3.63;;
55641;SDS011;41509;53.108;6.100;2024-02-26T02:26:49;7.10;;;3.97;;
55641;SDS011;41509;53.108;6.100;2024-02-26T02:29:14;8.30;;;4.17;;
55641;SDS011;41509;53.108;6.100;2024-02-26T02:31:43;7.78;;;3.88;;
55641;SDS011;41509;53.108;6.100;2024-02-26T02:34:09;9.10;;;4.47;;
55641;SDS011;41509;53.108;6.100;2024-02-26T02:36:35;8.85;;;4.30;;
55641;SDS011;41509;53.108;6.100;2024-02-26T02:39:12;8.85;;;4.63;;
55641;SDS011;41509;53.108;6.100;2024-02-26T02:41:38;9.17;;;4.40;;
55641;SDS011;41509;53.108;6.100;2024-02-26T02:44:04;9.10;;;4.03;;
55641;SDS011;41509;53.108;6.100;2024-02-26T02:46:32;8.15;;;4.32;;
55641;SDS011;41509;53.108;6.100;2024-02-26T02:49:00;8.23;;;4.47;;
55641;SDS011;41509;53.108;6.100;2024-02-26T02:51:26;9.23;;;3.80;;
55641;SDS011;41509;53.108;6.100;2024-02-26T02:53:51;8.60;;;4.10;;
55641;SDS011;41509;53.108;6.100;2024-02-26T02:56:17;8.93;;;4.27;;
55641;SDS011;41509;53.108;6.100;2024-02-26T02:58:45;9.27;;;4.03;;
55641;SDS011;41509;53.108;6.100;2024-02-26T03:01:12;8.85;;;4.07;;
55641;SDS011;41509;53.108;6.100;2024-02-26T03:03:38;7.70;;;3.40;;
55641;SDS011;41509;53.108;6.100;2024-02-26T03:06:04;10.13;;;3.80;;
55641;SDS011;41509;53.108;6.100;2024-02-26T03:08:29;5.53;;;3.13;;
55641;SDS011;41509;53.108;6.100;2024-02-26T03:10:58;6.70;;;3.10;;
55641;SDS011;41509;53.108;6.100;2024-02-26T03:13:24;7.35;;;3.58;;
55641;SDS011;41509;53.108;6.100;2024-02-26T03:15:50;6.23;;;3.63;;
55641;SDS011;41509;53.108;6.100;2024-02-26T03:18:16;6.60;;;3.03;;
55641;SDS011;41509;53.108;6.100;2024-02-26T03:20:44;6.78;;;3.00;;
55641;SDS011;41509;53.108;6.100;2024-02-26T03:23:10;5.93;;;3.53;;
55641;SDS011;41509;53.108;6.100;2024-02-26T03:25:38;7.13;;;3.45;;
55641;SDS011;41509;53.108;6.100;2024-02-26T03:28:03;4.88;;;2.72;;
55641;SDS011;41509;53.108;6.100;2024-02-26T03:30:29;6.85;;;2.83;;
55641;SDS011;41509;53.108;6.100;2024-02-26T03:32:58;5.50;;;3.30;;
55641;SDS011;41509;53.108;6.100;2024-02-26T03:35:24;6.43;;;2.88;;
55641;SDS011;41509;53.108;6.100;2024-02-26T03:37:49;7.33;;;2.33;;
55641;SDS011;41509;53.108;6.100;2024-02-26T03:40:16;5.25;;;2.78;;
55641;SDS011;41509;53.108;6.100;2024-02-26T03:42:44;5.80;;;2.63;;
55641;SDS011;41509;53.108;6.100;2024-02-26T03:45:10;5.20;;;3.17;;
55641;SDS011;41509;53.108;6.100;2024-02-26T03:47:37;6.87;;;2.93;;
55641;SDS011;41509;53.108;6.100;2024-02-26T03:50:07;6.80;;;2.83;;
55641;SDS011;41509;53.108;6.100;2024-02-26T03:52:33;6.35;;;3.05;;
55641;SDS011;41509;53.108;6.100;2024-02-26T03:54:59;6.10;;;2.70;;
55641;SDS011;41509;53.108;6.100;2024-02-26T03:57:27;5.68;;;2.90;;
55641;SDS011;41509;53.108;6.100;2024-02-26T03:59:55;6.97;;;2.88;;
55641;SDS011;41509;53.108;6.100;2024-02-26T04:02:21;7.45;;;2.75;;
55641;SDS011;41509;53.108;6.100;2024-02-26T04:04:48;3.90;;;2.25;;
55641;SDS011;41509;53.108;6.100;2024-02-26T04:07:14;8.48;;;2.33;;
55641;SDS011;41509;53.108;6.100;2024-02-26T04:09:40;8.07;;;2.43;;
55641;SDS011;41509;53.108;6.100;2024-02-26T04:12:05;5.33;;;2.47;;
55641;SDS011;41509;53.108;6.100;2024-02-26T04:14:31;5.78;;;3.22;;
55641;SDS011;41509;53.108;6.100;2024-02-26T04:16:57;3.13;;;1.77;;
55641;SDS011;41509;53.108;6.100;2024-02-26T04:19:22;5.57;;;2.30;;
55641;SDS011;41509;53.108;6.100;2024-02-26T04:21:48;8.13;;;2.27;;
55641;SDS011;41509;53.108;6.100;2024-02-26T04:24:13;4.03;;;2.00;;
55641;SDS011;41509;53.108;6.100;2024-02-26T04:26:39;3.83;;;2.53;;
55641;SDS011;41509;53.108;6.100;2024-02-26T04:29:05;4.17;;;2.40;;
55641;SDS011;41509;53.108;6.100;2024-02-26T04:31:30;4.10;;;2.50;;
55641;SDS011;41509;53.108;6.100;2024-02-26T04:33:59;7.90;;;2.90;;
55641;SDS011;41509;53.108;6.100;2024-02-26T04:36:24;5.13;;;2.80;;
55641;SDS011;41509;53.108;6.100;2024-02-26T04:38:53;3.88;;;2.53;;
55641;SDS011;41509;53.108;6.100;2024-02-26T04:41:20;4.40;;;2.22;;
55641;SDS011;41509;53.108;6.100;2024-02-26T04:43:46;4.77;;;2.23;;
55641;SDS011;41509;53.108;6.100;2024-02-26T04:46:15;7.80;;;2.87;;
55641;SDS011;41509;53.108;6.100;2024-02-26T04:48:41;4.85;;;2.70;;
55641;SDS011;41509;53.108;6.100;2024-02-26T04:51:11;4.15;;;2.45;;
55641;SDS011;41509;53.108;6.100;2024-02-26T04:53:37;7.20;;;3.27;;
55641;SDS011;41509;53.108;6.100;2024-02-26T04:56:02;5.70;;;3.07;;
55641;SDS011;41509;53.108;6.100;2024-02-26T04:58:28;5.20;;;2.60;;
55641;SDS011;41509;53.108;6.100;2024-02-26T05:00:54;5.00;;;2.90;;
55641;SDS011;41509;53.108;6.100;2024-02-26T05:03:20;7.45;;;2.65;;
55641;SDS011;41509;53.108;6.100;2024-02-26T05:05:46;4.53;;;2.57;;
55641;SDS011;41509;53.108;6.100;2024-02-26T05:08:12;5.13;;;2.40;;
55641;SDS011;41509;53.108;6.100;2024-02-26T05:10:37;6.43;;;2.60;;
55641;SDS011;41509;53.108;6.100;2024-02-26T05:13:08;5.93;;;2.50;;
55641;SDS011;41509;53.108;6.100;2024-02-26T05:15:34;5.15;;;3.03;;
55641;SDS011;41509;53.108;6.100;2024-02-26T05:18:00;5.65;;;2.70;;
55641;SDS011;41509;53.108;6.100;2024-02-26T05:20:26;4.40;;;2.53;;
55641;SDS011;41509;53.108;6.100;2024-02-26T05:22:51;5.00;;;2.43;;
55641;SDS011;41509;53.108;6.100;2024-02-26T05:25:17;5.97;;;2.97;;
55641;SDS011;41509;53.108;6.100;2024-02-26T05:27:45;7.35;;;2.92;;
55641;SDS011;41509;53.108;6.100;2024-02-26T05:30:11;5.67;;;2.60;;
55641;SDS011;41509;53.108;6.100;2024-02-26T05:32:37;5.70;;;2.60;;
55641;SDS011;41509;53.108;6.100;2024-02-26T05:35:03;5.27;;;2.67;;
55641;SDS011;41509;53.108;6.100;2024-02-26T05:37:31;8.85;;;2.67;;
55641;SDS011;41509;53.108;6.100;2024-02-26T05:39:57;7.15;;;2.95;;
55641;SDS011;41509;53.108;6.100;2024-02-26T05:42:23;4.10;;;2.28;;
55641;SDS011;41509;53.108;6.100;2024-02-26T05:44:48;5.00;;;2.43;;
55641;SDS011;41509;53.108;6.100;2024-02-26T05:47:17;4.60;;;2.65;;
55641;SDS011;41509;53.108;6.100;2024-02-26T05:49:43;4.57;;;2.40;;
55641;SDS011;41509;53.108;6.100;2024-02-26T05:52:08;6.82;;;3.30;;
55641;SDS011;41509;53.108;6.100;2024-02-26T05:54:34;6.27;;;3.40;;
55641;SDS011;41509;53.108;6.100;2024-02-26T05:57:00;7.80;;;2.90;;
55641;SDS011;41509;53.108;6.100;2024-02-26T05:59:26;4.97;;;2.50;;
55641;SDS011;41509;53.108;6.100;2024-02-26T06:01:51;5.10;;;2.70;;
55641;SDS011;41509;53.108;6.100;2024-02-26T06:04:17;6.37;;;2.90;;
55641;SDS011;41509;53.108;6.100;2024-02-26T06:06:44;4.07;;;2.43;;
55641;SDS011;41509;53.108;6.100;2024-02-26T06:09:10;7.53;;;2.70;;
55641;SDS011;41509;53.108;6.100;2024-02-26T06:11:37;5.05;;;3.20;;
55641;SDS011;41509;53.108;6.100;2024-02-26T06:14:05;4.80;;;2.85;;
55641;SDS011;41509;53.108;6.100;2024-02-26T06:16:31;4.13;;;2.60;;
55641;SDS011;41509;53.108;6.100;2024-02-26T06:18:56;5.77;;;2.90;;
55641;SDS011;41509;53.108;6.100;2024-02-26T06:21:25;3.22;;;1.92;;
55641;SDS011;41509;53.108;6.100;2024-02-26T06:23:51;3.75;;;1.90;;
55641;SDS011;41509;53.108;6.100;2024-02-26T06:26:17;4.53;;;2.30;;
55641;SDS011;41509;53.108;6.100;2024-02-26T06:28:42;5.33;;;2.67;;
55641;SDS011;41509;53.108;6.100;2024-02-26T06:31:08;3.73;;;2.30;;
55641;SDS011;41509;53.108;6.100;2024-02-26T06:33:34;5.30;;;2.92;;
55641;SDS011;41509;53.108;6.100;2024-02-26T06:35:59;4.80;;;2.00;;
55641;SDS011;41509;53.108;6.100;2024-02-26T06:38:25;3.35;;;1.73;;
55641;SDS011;41509;53.108;6.100;2024-02-26T06:40:54;7.37;;;2.17;;
55641;SDS011;41509;53.108;6.100;2024-02-26T06:43:19;3.13;;;1.67;;
55641;SDS011;41509;53.108;6.100;2024-02-26T06:45:45;3.17;;;1.93;;
55641;SDS011;41509;53.108;6.100;2024-02-26T06:48:10;3.60;;;1.93;;
55641;SDS011;41509;53.108;6.100;2024-02-26T06:50:36;5.00;;;1.63;;
55641;SDS011;41509;53.108;6.100;2024-02-26T06:53:02;6.47;;;2.10;;
55641;SDS011;41509;53.108;6.100;2024-02-26T06:55:28;3.63;;;1.75;;
55641;SDS011;41509;53.108;6.100;2024-02-26T06:57:58;3.88;;;1.67;;
55641;SDS011;41509;53.108;6.100;2024-02-26T07:00:24;2.58;;;1.38;;
55641;SDS011;41509;53.108;6.100;2024-02-26T07:02:50;3.90;;;1.97;;
55641;SDS011;41509;53.108;6.100;2024-02-26T07:05:15;2.60;;;1.50;;
55641;SDS011;41509;53.108;6.100;2024-02-26T07:07:41;5.50;;;2.13;;
55641;SDS011;41509;53.108;6.100;2024-02-26T07:10:07;2.50;;;1.60;;
55641;SDS011;41509;53.108;6.100;2024-02-26T07:12:37;2.53;;;1.40;;
55641;SDS011;41509;53.108;6.100;2024-02-26T07:15:03;3.50;;;1.70;;
55641;SDS011;41509;53.108;6.100;2024-02-26T07:19:55;4.60;;;1.98;;
55641;SDS011;41509;53.108;6.100;2024-02-26T07:22:21;4.47;;;2.28;;
55641;SDS011;41509;53.108;6.100;2024-02-26T07:24:47;4.93;;;2.60;;
55641;SDS011;41509;53.108;6.100;2024-02-26T07:27:12;8.07;;;2.60;;
55641;SDS011;41509;53.108;6.100;2024-02-26T07:29:50;5.20;;;2.03;;
55641;SDS011;41509;53.108;6.100;2024-02-26T07:32:16;3.10;;;1.23;;
55641;SDS011;41509;53.108;6.100;2024-02-26T07:34:42;3.70;;;1.95;;
55641;SDS011;41509;53.108;6.100;2024-02-26T07:37:09;2.08;;;1.13;;
55641;SDS011;41509;53.108;6.100;2024-02-26T07:39:38;4.88;;;1.65;;
55641;SDS011;41509;53.108;6.100;2024-02-26T07:42:04;5.03;;;1.90;;
55641;SDS011;41509;53.108;6.100;2024-02-26T07:44:30;4.30;;;1.53;;
55641;SDS011;41509;53.108;6.100;2024-02-26T07:46:55;2.83;;;1.53;;
55641;SDS011;41509;53.108;6.100;2024-02-26T07:49:21;3.23;;;1.53;;
55641;SDS011;41509;53.108;6.100;2024-02-26T07:51:49;3.00;;;1.80;;
55641;SDS011;41509;53.108;6.100;2024-02-26T07:54:14;2.57;;;1.33;;
55641;SDS011;41509;53.108;6.100;2024-02-26T07:56:41;4.72;;;1.80;;
55641;SDS011;41509;53.108;6.100;2024-02-26T07:59:07;2.85;;;1.75;;
55641;SDS011;41509;53.108;6.100;2024-02-26T08:01:32;3.57;;;1.63;;
55641;SDS011;41509;53.108;6.100;2024-02-26T08:06:25;5.57;;;1.38;;
55641;SDS011;41509;53.108;6.100;2024-02-26T08:08:50;3.67;;;1.67;;
55641;SDS011;41509;53.108;6.100;2024-02-26T08:11:16;5.10;;;2.10;;
55641;SDS011;41509;53.108;6.100;2024-02-26T08:13:42;3.90;;;2.03;;
55641;SDS011;41509;53.108;6.100;2024-02-26T08:16:07;5.63;;;2.00;;
55641;SDS011;41509;53.108;6.100;2024-02-26T08:18:34;4.45;;;1.83;;
55641;SDS011;41509;53.108;6.100;2024-02-26T08:21:00;6.38;;;2.38;;
55641;SDS011;41509;53.108;6.100;2024-02-26T08:23:25;2.77;;;1.10;;
55641;SDS011;41509;53.108;6.100;2024-02-26T08:25:51;2.50;;;1.33;;
55641;SDS011;41509;53.108;6.100;2024-02-26T08:28:16;2.43;;;1.17;;
55641;SDS011;41509;53.108;6.100;2024-02-26T08:30:43;5.22;;;1.63;;
55641;SDS011;41509;53.108;6.100;2024-02-26T08:33:09;3.83;;;1.50;;
55641;SDS011;41509;53.108;6.100;2024-02-26T08:35:35;2.70;;;1.33;;
55641;SDS011;41509;53.108;6.100;2024-02-26T08:38:01;7.47;;;1.50;;
55641;SDS011;41509;53.108;6.100;2024-02-26T08:40:27;4.32;;;1.52;;
55641;SDS011;41509;53.108;6.100;2024-02-26T08:42:53;3.03;;;1.10;;
55641;SDS011;41509;53.108;6.100;2024-02-26T08:45:20;3.25;;;1.80;;
55641;SDS011;41509;53.108;6.100;2024-02-26T08:47:46;6.33;;;1.83;;
55641;SDS011;41509;53.108;6.100;2024-02-26T08:50:11;4.50;;;1.83;;
55641;SDS011;41509;53.108;6.100;2024-02-26T08:52:38;3.90;;;1.87;;
55641;SDS011;41509;53.108;6.100;2024-02-26T08:55:03;3.88;;;2.22;;
55641;SDS011;41509;53.108;6.100;2024-02-26T08:57:31;3.15;;;1.70;;
55641;SDS011;41509;53.108;6.100;2024-02-26T08:59:59;3.67;;;1.75;;
55641;SDS011;41509;53.108;6.100;2024-02-26T09:02:25;4.15;;;1.73;;
55641;SDS011;41509;53.108;6.100;2024-02-26T09:04:51;6.35;;;2.65;;
55641;SDS011;41509;53.108;6.100;2024-02-26T09:07:19;6.75;;;2.00;;
55641;SDS011;41509;53.108;6.100;2024-02-26T09:09:45;5.03;;;2.07;;
55641;SDS011;41509;53.108;6.100;2024-02-26T09:12:10;3.77;;;1.90;;
55641;SDS011;41509;53.108;6.100;2024-02-26T09:14:36;2.33;;;1.27;;
55641;SDS011;41509;53.108;6.100;2024-02-26T09:17:02;2.27;;;1.50;;
55641;SDS011;41509;53.108;6.100;2024-02-26T09:19:28;2.70;;;1.38;;
55641;SDS011;41509;53.108;6.100;2024-02-26T09:21:54;4.53;;;1.43;;
55641;SDS011;41509;53.108;6.100;2024-02-26T09:24:22;2.97;;;1.27;;
55641;SDS011;41509;53.108;6.100;2024-02-26T09:26:51;3.95;;;1.55;;
55641;SDS011;41509;53.108;6.100;2024-02-26T09:29:17;3.07;;;1.23;;
55641;SDS011;41509;53.108;6.100;2024-02-26T09:31:43;2.67;;;1.20;;
55641;SDS011;41509;53.108;6.100;2024-02-26T09:34:12;2.33;;;1.10;;
55641;SDS011;41509;53.108;6.100;2024-02-26T09:36:38;6.38;;;1.52;;
55641;SDS011;41509;53.108;6.100;2024-02-26T09:39:03;2.17;;;1.27;;
55641;SDS011;41509;53.108;6.100;2024-02-26T09:41:30;3.15;;;1.50;;
55641;SDS011;41509;53.108;6.100;2024-02-26T09:43:56;3.33;;;1.67;;
55641;SDS011;41509;53.108;6.100;2024-02-26T09:46:25;2.78;;;1.20;;
55641;SDS011;41509;53.108;6.100;2024-02-26T09:48:51;4.85;;;1.48;;
55641;SDS011;41509;53.108;6.100;2024-02-26T09:51:17;3.97;;;2.20;;
55641;SDS011;41509;53.108;6.100;2024-02-26T09:56:12;3.95;;;1.75;;
55641;SDS011;41509;53.108;6.100;2024-02-26T09:58:38;4.53;;;1.60;;
55641;SDS011;41509;53.108;6.100;2024-02-26T10:01:05;6.72;;;1.90;;
55641;SDS011;41509;53.108;6.100;2024-02-26T10:03:36;3.90;;;1.65;;
55641;SDS011;41509;53.108;6.100;2024-02-26T10:06:06;2.75;;;1.50;;
55641;SDS011;41509;53.108;6.100;2024-02-26T10:08:33;4.35;;;1.52;;
55641;SDS011;41509;53.108;6.100;2024-02-26T10:11:00;4.28;;;1.80;;
55641;SDS011;41509;53.108;6.100;2024-02-26T10:13:26;4.13;;;1.57;;
55641;SDS011;41509;53.108;6.100;2024-02-26T10:15:51;4.57;;;1.87;;
55641;SDS011;41509;53.108;6.100;2024-02-26T10:18:17;5.07;;;1.70;;
55641;SDS011;41509;53.108;6.100;2024-02-26T10:20:52;2.93;;;1.40;;
55641;SDS011;41509;53.108;6.100;2024-02-26T10:23:25;6.55;;;1.70;;
55641;SDS011;41509;53.108;6.100;2024-02-26T10:25:54;2.83;;;1.48;;
55641;SDS011;41509;53.108;6.100;2024-02-26T10:28:21;3.88;;;1.77;;
55641;SDS011;41509;53.108;6.100;2024-02-26T10:30:47;5.63;;;1.73;;
55641;SDS011;41509;53.108;6.100;2024-02-26T10:33:13;3.90;;;1.57;;
55641;SDS011;41509;53.108;6.100;2024-02-26T10:35:39;3.78;;;1.85;;
55641;SDS011;41509;53.108;6.100;2024-02-26T10:38:10;4.50;;;1.70;;
55641;SDS011;41509;53.108;6.100;2024-02-26T10:40:36;4.73;;;1.97;;
55641;SDS011;41509;53.108;6.100;2024-02-26T10:43:02;3.25;;;1.52;;
55641;SDS011;41509;53.108;6.100;2024-02-26T10:45:27;6.70;;;1.23;;
55641;SDS011;41509;53.108;6.100;2024-02-26T10:47:53;3.93;;;1.90;;
55641;SDS011;41509;53.108;6.100;2024-02-26T10:50:19;2.77;;;1.63;;
55641;SDS011;41509;53.108;6.100;2024-02-26T10:52:45;4.55;;;1.58;;
55641;SDS011;41509;53.108;6.100;2024-02-26T10:55:15;4.67;;;1.50;;
55641;SDS011;41509;53.108;6.100;2024-02-26T10:57:43;1.95;;;1.20;;
55641;SDS011;41509;53.108;6.100;2024-02-26T11:00:10;3.85;;;1.30;;
55641;SDS011;41509;53.108;6.100;2024-02-26T11:02:40;3.42;;;1.35;;
55641;SDS011;41509;53.108;6.100;2024-02-26T11:05:06;1.55;;;0.90;;
55641;SDS011;41509;53.108;6.100;2024-02-26T11:07:36;7.20;;;1.80;;
55641;SDS011;41509;53.108;6.100;2024-02-26T11:10:02;4.35;;;1.30;;
55641;SDS011;41509;53.108;6.100;2024-02-26T11:12:32;2.50;;;1.30;;
55641;SDS011;41509;53.108;6.100;2024-02-26T11:15:00;3.17;;;1.40;;
55641;SDS011;41509;53.108;6.100;2024-02-26T11:17:27;3.38;;;1.50;;
55641;SDS011;41509;53.108;6.100;2024-02-26T11:19:57;3.67;;;1.60;;
55641;SDS011;41509;53.108;6.100;2024-02-26T11:22:26;4.05;;;1.55;;
55641;SDS011;41509;53.108;6.100;2024-02-26T11:24:52;4.05;;;1.50;;
55641;SDS011;41509;53.108;6.100;2024-02-26T11:27:26;6.15;;;1.70;;
55641;SDS011;41509;53.108;6.100;2024-02-26T11:29:55;4.38;;;1.65;;
55641;SDS011;41509;53.108;6.100;2024-02-26T11:32:22;4.05;;;1.83;;
55641;SDS011;41509;53.108;6.100;2024-02-26T11:34:48;3.42;;;1.60;;
55641;SDS011;41509;53.108;6.100;2024-02-26T11:37:17;4.45;;;1.95;;
55641;SDS011;41509;53.108;6.100;2024-02-26T11:39:43;3.30;;;1.60;;
55641;SDS011;41509;53.108;6.100;2024-02-26T11:42:15;3.53;;;1.70;;
55641;SDS011;41509;53.108;6.100;2024-02-26T11:44:41;3.40;;;1.45;;
55641;SDS011;41509;53.108;6.100;2024-02-26T11:47:14;3.33;;;1.70;;
55641;SDS011;41509;53.108;6.100;2024-02-26T11:49:48;5.28;;;2.20;;
55641;SDS011;41509;53.108;6.100;2024-02-26T11:52:14;5.22;;;2.38;;
55641;SDS011;41509;53.108;6.100;2024-02-26T12:00:14;5.70;;;2.47;;
55641;SDS011;41509;53.108;6.100;2024-02-26T12:02:49;3.58;;;1.90;;
55641;SDS011;41509;53.108;6.100;2024-02-26T12:05:23;4.95;;;2.58;;
55641;SDS011;41509;53.108;6.100;2024-02-26T12:07:53;4.32;;;2.20;;
55641;SDS011;41509;53.108;6.100;2024-02-26T12:10:27;5.30;;;2.28;;
55641;SDS011;41509;53.108;6.100;2024-02-26T12:13:02;6.55;;;2.75;;
55641;SDS011;41509;53.108;6.100;2024-02-26T12:15:33;6.07;;;2.67;;
55641;SDS011;41509;53.108;6.100;2024-02-26T12:18:02;5.00;;;2.63;;
55641;SDS011;41509;53.108;6.100;2024-02-26T12:20:29;7.85;;;2.58;;
55641;SDS011;41509;53.108;6.100;2024-02-26T12:22:54;5.63;;;2.63;;
55641;SDS011;41509;53.108;6.100;2024-02-26T12:25:23;7.47;;;3.08;;
55641;SDS011;41509;53.108;6.100;2024-02-26T12:27:53;7.22;;;2.60;;
55641;SDS011;41509;53.108;6.100;2024-02-26T12:32:46;4.72;;;2.08;;
55641;SDS011;41509;53.108;6.100;2024-02-26T12:35:13;6.38;;;2.20;;
55641;SDS011;41509;53.108;6.100;2024-02-26T12:37:39;4.20;;;2.15;;
55641;SDS011;41509;53.108;6.100;2024-02-26T12:40:06;3.97;;;1.75;;
55641;SDS011;41509;53.108;6.100;2024-02-26T12:42:33;5.90;;;2.03;;
55641;SDS011;41509;53.108;6.100;2024-02-26T12:45:04;9.43;;;2.80;;
55641;SDS011;41509;53.108;6.100;2024-02-26T12:47:38;6.07;;;2.60;;
55641;SDS011;41509;53.108;6.100;2024-02-26T12:50:05;5.55;;;2.53;;
55641;SDS011;41509;53.108;6.100;2024-02-26T12:52:32;4.47;;;2.53;;
55641;SDS011;41509;53.108;6.100;2024-02-26T12:55:05;3.50;;;2.22;;
55641;SDS011;41509;53.108;6.100;2024-02-26T12:57:34;5.30;;;2.33;;
55641;SDS011;41509;53.108;6.100;2024-02-26T13:00:02;4.78;;;2.35;;
55641;SDS011;41509;53.108;6.100;2024-02-26T13:02:28;5.22;;;2.58;;
55641;SDS011;41509;53.108;6.100;2024-02-26T13:04:57;5.85;;;2.45;;
55641;SDS011;41509;53.108;6.100;2024-02-26T13:07:26;5.38;;;2.22;;
55641;SDS011;41509;53.108;6.100;2024-02-26T13:09:52;8.00;;;1.73;;
55641;SDS011;41509;53.108;6.100;2024-02-26T13:12:21;8.00;;;2.58;;
55641;SDS011;41509;53.108;6.100;2024-02-26T13:14:47;4.80;;;2.13;;
55641;SDS011;41509;53.108;6.100;2024-02-26T13:17:20;4.28;;;2.78;;
55641;SDS011;41509;53.108;6.100;2024-02-26T13:19:49;3.78;;;2.17;;
55641;SDS011;41509;53.108;6.100;2024-02-26T13:22:15;4.80;;;2.38;;
55641;SDS011;41509;53.108;6.100;2024-02-26T13:24:41;8.40;;;3.90;;
55641;SDS011;41509;53.108;6.100;2024-02-26T13:27:07;8.80;;;4.00;;
55641;SDS011;41509;53.108;6.100;2024-02-26T13:29:33;7.78;;;2.88;;
55641;SDS011;41509;53.108;6.100;2024-02-26T13:31:59;14.27;;;4.45;;
55641;SDS011;41509;53.108;6.100;2024-02-26T13:34:26;5.35;;;2.45;;
55641;SDS011;41509;53.108;6.100;2024-02-26T13:36:56;4.95;;;2.42;;
55641;SDS011;41509;53.108;6.100;2024-02-26T13:39:23;5.90;;;2.40;;
55641;SDS011;41509;53.108;6.100;2024-02-26T13:41:50;8.20;;;2.45;;
55641;SDS011;41509;53.108;6.100;2024-02-26T13:44:17;7.63;;;2.85;;
55641;SDS011;41509;53.108;6.100;2024-02-26T13:49:09;3.63;;;1.83;;
55641;SDS011;41509;53.108;6.100;2024-02-26T13:51:36;7.80;;;1.95;;
55641;SDS011;41509;53.108;6.100;2024-02-26T13:54:05;4.53;;;2.00;;
55641;SDS011;41509;53.108;6.100;2024-02-26T13:56:32;5.03;;;2.35;;
55641;SDS011;41509;53.108;6.100;2024-02-26T13:58:58;4.43;;;2.67;;
55641;SDS011;41509;53.108;6.100;2024-02-26T14:01:25;4.95;;;1.77;;
55641;SDS011;41509;53.108;6.100;2024-02-26T14:06:22;6.50;;;2.72;;
55641;SDS011;41509;53.108;6.100;2024-02-26T14:08:48;6.40;;;2.35;;
55641;SDS011;41509;53.108;6.100;2024-02-26T14:11:14;5.43;;;2.42;;
55641;SDS011;41509;53.108;6.100;2024-02-26T14:13:41;3.85;;;1.95;;
55641;SDS011;41509;53.108;6.100;2024-02-26T14:16:06;3.42;;;2.20;;
55641;SDS011;41509;53.108;6.100;2024-02-26T14:18:32;6.05;;;2.60;;
55641;SDS011;41509;53.108;6.100;2024-02-26T14:20:58;5.75;;;2.58;;
55641;SDS011;41509;53.108;6.100;2024-02-26T14:25:51;5.18;;;2.25;;
55641;SDS011;41509;53.108;6.100;2024-02-26T14:28:17;4.07;;;2.35;;
55641;SDS011;41509;53.108;6.100;2024-02-26T14:30:43;7.43;;;2.50;;
55641;SDS011;41509;53.108;6.100;2024-02-26T14:33:09;4.93;;;2.67;;
55641;SDS011;41509;53.108;6.100;2024-02-26T14:35:35;4.80;;;2.88;;
55641;SDS011;41509;53.108;6.100;2024-02-26T14:38:01;3.35;;;2.10;;
55641;SDS011;41509;53.108;6.100;2024-02-26T14:40:28;3.67;;;2.25;;
55641;SDS011;41509;53.108;6.100;2024-02-26T14:42:55;4.93;;;2.22;;
55641;SDS011;41509;53.108;6.100;2024-02-26T14:45:22;8.00;;;2.35;;
55641;SDS011;41509;53.108;6.100;2024-02-26T14:47:49;6.72;;;2.15;;
55641;SDS011;41509;53.108;6.100;2024-02-26T14:50:15;5.50;;;2.53;;
55641;SDS011;41509;53.108;6.100;2024-02-26T14:52:41;4.97;;;2.75;;
55641;SDS011;41509;53.108;6.100;2024-02-26T14:55:07;4.75;;;2.50;;
55641;SDS011;41509;53.108;6.100;2024-02-26T14:57:33;5.35;;;2.85;;
55641;SDS011;41509;53.108;6.100;2024-02-26T14:59:59;7.40;;;2.75;;
55641;SDS011;41509;53.108;6.100;2024-02-26T15:04:52;4.45;;;2.45;;
55641;SDS011;41509;53.108;6.100;2024-02-26T15:07:18;5.57;;;3.17;;
55641;SDS011;41509;53.108;6.100;2024-02-26T15:09:47;4.47;;;2.58;;
55641;SDS011;41509;53.108;6.100;2024-02-26T15:12:13;4.47;;;2.42;;